createdAt,value
2019-04-04T00:01:33.947Z,59.60
2019-04-04T00:04:00.672Z,66.50
2019-04-04T00:06:27.726Z,58.23
2019-04-04T00:08:54.554Z,55.33
2019-04-04T00:11:21.302Z,54.88
2019-04-04T00:13:48.142Z,50.40
2019-04-04T00:16:16.090Z,58.68
2019-04-04T00:18:43.279Z,54.10
2019-04-04T00:21:09.994Z,49.33
2019-04-04T00:23:38.080Z,55.25
2019-04-04T00:26:05.247Z,51.23
2019-04-04T00:28:32.061Z,49.10
2019-04-04T00:30:58.808Z,52.93
2019-04-04T00:33:25.725Z,47.20
2019-04-04T00:35:52.996Z,49.80
2019-04-04T00:38:19.742Z,50.67
2019-04-04T00:40:46.369Z,47.40
2019-04-04T00:43:13.317Z,43.90
2019-04-04T00:45:40.049Z,45.00
2019-04-04T00:48:06.708Z,44.33
2019-04-04T00:50:34.852Z,42.48
2019-04-04T00:53:02.305Z,42.27
2019-04-04T00:55:29.773Z,41.05
2019-04-04T00:57:56.417Z,40.75
2019-04-04T01:00:23.982Z,40.67
2019-04-04T01:02:51.425Z,46.88
2019-04-04T01:05:18.169Z,40.90
2019-04-04T01:07:44.903Z,38.88
2019-04-04T01:10:11.955Z,35.85
2019-04-04T01:12:38.689Z,37.75
2019-04-04T01:15:05.838Z,37.23
2019-04-04T01:17:33.048Z,35.95
2019-04-04T01:20:01.190Z,34.70
2019-04-04T01:22:27.903Z,39.15
2019-04-04T01:24:54.587Z,36.28
2019-04-04T01:27:21.380Z,43.45
2019-04-04T01:29:48.116Z,42.70
2019-04-04T01:32:15.154Z,47.17
2019-04-04T01:34:43.545Z,43.58
2019-04-04T01:37:10.283Z,41.18
2019-04-04T01:39:36.922Z,42.58
2019-04-04T01:42:06.811Z,41.70
2019-04-04T01:44:32.298Z,47.08
2019-04-04T01:46:59.088Z,42.88
2019-04-04T01:49:25.809Z,43.38
2019-04-04T01:51:52.512Z,45.67
2019-04-04T01:54:19.210Z,45.92
2019-04-04T01:56:46.047Z,45.80
2019-04-04T01:59:13.023Z,45.12
2019-04-04T02:01:39.931Z,44.30
2019-04-04T02:04:06.674Z,47.15
2019-04-04T02:06:33.413Z,44.00
2019-04-04T02:09:02.474Z,44.33
2019-04-04T02:11:30.423Z,43.33
2019-04-04T02:13:57.210Z,41.30
2019-04-04T02:16:23.856Z,40.70
2019-04-04T02:18:53.577Z,44.58
2019-04-04T02:21:19.066Z,44.08
2019-04-04T02:23:45.695Z,44.48
2019-04-04T02:26:12.347Z,49.67
2019-04-04T02:28:39.986Z,52.73
2019-04-04T02:31:08.189Z,51.10
2019-04-04T02:33:34.923Z,45.88
2019-04-04T02:36:01.659Z,50.65
2019-04-04T02:38:29.527Z,47.83
2019-04-04T02:40:56.268Z,45.28
2019-04-04T02:43:27.395Z,50.95
2019-04-04T02:45:51.796Z,47.60
2019-04-04T02:48:23.415Z,50.38
2019-04-04T02:50:47.218Z,45.43
2019-04-04T02:53:13.847Z,48.83
2019-04-04T02:55:40.698Z,50.78
2019-04-04T02:58:08.258Z,49.77
2019-04-04T03:00:34.886Z,50.28
2019-04-04T03:03:01.737Z,44.13
2019-04-04T03:05:28.576Z,43.87
2019-04-04T03:07:55.413Z,41.23
2019-04-04T03:10:22.261Z,38.42
2019-04-04T03:12:48.997Z,47.50
2019-04-04T03:15:15.738Z,50.52
2019-04-04T03:17:42.556Z,49.95
2019-04-04T03:20:09.414Z,48.45
2019-04-04T03:22:36.237Z,47.65
2019-04-04T03:25:03.355Z,48.78
2019-04-04T03:27:30.147Z,51.53
2019-04-04T03:29:56.787Z,51.55
2019-04-04T03:32:23.561Z,51.05
2019-04-04T03:34:51.440Z,47.27
2019-04-04T03:37:19.669Z,48.70
2019-04-04T03:39:46.397Z,49.13
2019-04-04T03:42:13.083Z,46.95
2019-04-04T03:44:39.785Z,50.20
2019-04-04T03:47:09.863Z,49.67
2019-04-04T03:49:35.209Z,46.48
2019-04-04T03:52:01.839Z,45.20
2019-04-04T03:54:28.479Z,42.43
2019-04-04T03:56:55.174Z,41.70
2019-04-04T03:59:21.962Z,39.73
2019-04-04T04:01:48.696Z,43.75
2019-04-04T04:04:15.437Z,39.18
2019-04-04T04:06:43.093Z,38.63
2019-04-04T04:09:10.046Z,35.85
2019-04-04T04:11:37.497Z,37.23
2019-04-04T04:14:05.073Z,33.13
2019-04-04T04:16:34.879Z,32.00
2019-04-04T04:19:00.508Z,37.30
2019-04-04T04:21:27.221Z,36.40
2019-04-04T04:23:57.204Z,34.15
2019-04-04T04:26:23.589Z,34.63
2019-04-04T04:28:53.180Z,32.73
2019-04-04T04:31:18.824Z,33.05
2019-04-04T04:33:45.841Z,38.75
2019-04-04T04:36:15.264Z,39.83
2019-04-04T04:38:41.158Z,40.03
2019-04-04T04:41:07.892Z,39.85
2019-04-04T04:43:34.550Z,34.83
2019-04-04T04:46:02.214Z,33.65
2019-04-04T04:48:31.718Z,35.85
2019-04-04T04:50:57.657Z,33.10
2019-04-04T04:53:24.456Z,35.55
2019-04-04T04:55:51.128Z,39.58
2019-04-04T04:58:17.845Z,38.23
2019-04-04T05:00:47.334Z,33.30
2019-04-04T05:03:14.241Z,34.88
2019-04-04T05:05:40.917Z,36.15
2019-04-04T05:08:09.672Z,33.40
2019-04-04T05:10:36.239Z,43.05
2019-04-04T05:13:03.089Z,35.15
2019-04-04T05:15:30.417Z,43.58
2019-04-04T05:17:58.515Z,43.48
2019-04-04T05:20:26.811Z,40.65
2019-04-04T05:22:53.727Z,38.88
2019-04-04T05:25:20.539Z,37.80
2019-04-04T05:27:47.148Z,35.88
2019-04-04T05:30:15.902Z,36.80
2019-04-04T05:32:42.314Z,36.15
2019-04-04T05:35:08.976Z,29.90
2019-04-04T05:37:37.860Z,32.42
2019-04-04T05:40:05.638Z,31.12
2019-04-04T05:42:33.122Z,31.57
2019-04-04T05:45:00.311Z,28.80
2019-04-04T05:47:27.052Z,26.97
2019-04-04T05:49:53.800Z,28.50
2019-04-04T05:52:20.455Z,27.40
2019-04-04T05:54:47.181Z,26.17
2019-04-04T05:57:13.926Z,29.85
2019-04-04T05:59:42.382Z,37.65
2019-04-04T06:02:11.567Z,37.55
2019-04-04T06:04:37.918Z,34.05
2019-04-04T06:07:05.023Z,35.30
2019-04-04T06:09:32.016Z,34.08
2019-04-04T06:11:58.614Z,37.00
2019-04-04T06:14:25.299Z,37.05
2019-04-04T06:16:52.029Z,41.18
2019-04-04T06:19:18.867Z,35.78
2019-04-04T06:21:45.610Z,33.53
2019-04-04T06:24:12.357Z,33.75
2019-04-04T06:26:39.087Z,36.10
2019-04-04T06:29:05.924Z,36.40
2019-04-04T06:31:32.778Z,34.53
2019-04-04T06:33:59.513Z,38.20
2019-04-04T06:36:26.256Z,37.78
2019-04-04T06:38:54.071Z,36.08
2019-04-04T06:41:21.265Z,36.58
2019-04-04T06:43:47.945Z,38.92
2019-04-04T06:46:18.953Z,43.00
2019-04-04T06:48:43.220Z,37.70
2019-04-04T06:51:09.908Z,38.02
2019-04-04T06:53:36.611Z,39.78
2019-04-04T06:56:03.259Z,37.10
2019-04-04T06:58:30.875Z,39.27
2019-04-04T07:00:57.693Z,39.70
2019-04-04T07:03:26.924Z,36.77
2019-04-04T07:05:52.916Z,35.23
2019-04-04T07:08:19.800Z,29.90
2019-04-04T07:10:57.365Z,35.17
2019-04-04T07:13:21.902Z,34.70
2019-04-04T07:15:57.889Z,32.93
2019-04-04T07:18:15.267Z,34.40
2019-04-04T07:20:41.958Z,31.23
2019-04-04T07:23:09.021Z,35.85
2019-04-04T07:25:36.013Z,39.42
2019-04-04T07:28:02.837Z,36.55
2019-04-04T07:30:29.527Z,35.78
2019-04-04T07:32:57.282Z,32.30
2019-04-04T07:35:23.984Z,29.72
2019-04-04T07:37:52.916Z,29.90
2019-04-04T07:40:20.373Z,27.42
2019-04-04T07:42:48.153Z,25.32
2019-04-04T07:45:14.896Z,23.38
2019-04-04T07:47:41.656Z,24.12
2019-04-04T07:50:09.171Z,22.85
2019-04-04T07:52:35.830Z,24.52
2019-04-04T07:55:02.627Z,20.97
2019-04-04T07:57:30.285Z,24.72
2019-04-04T07:59:57.215Z,21.20
2019-04-04T08:02:23.946Z,20.88
2019-04-04T08:04:50.747Z,20.08
2019-04-04T08:07:17.476Z,21.87
2019-04-04T08:09:44.463Z,28.90
2019-04-04T08:12:11.577Z,30.62
2019-04-04T08:14:38.231Z,26.73
2019-04-04T08:17:04.929Z,25.25
2019-04-04T08:19:31.647Z,29.32
2019-04-04T08:21:58.347Z,26.17
2019-04-04T08:24:25.037Z,24.77
2019-04-04T08:26:51.696Z,22.60
2019-04-04T08:29:18.363Z,25.35
2019-04-04T08:31:46.041Z,21.80
2019-04-04T08:34:12.671Z,22.13
2019-04-04T08:36:39.399Z,22.50
2019-04-04T08:39:08.286Z,20.00
2019-04-04T08:41:34.928Z,19.62
2019-04-04T08:44:01.577Z,23.55
2019-04-04T08:46:28.272Z,18.92
2019-04-04T08:48:54.885Z,22.40
2019-04-04T08:51:21.563Z,20.72
2019-04-04T08:53:48.248Z,20.55
2019-04-04T08:56:14.894Z,28.55
2019-04-04T08:58:41.513Z,36.90
2019-04-04T09:01:08.241Z,29.52
2019-04-04T09:03:34.875Z,29.95
2019-04-04T09:06:01.574Z,32.28
2019-04-04T09:08:28.275Z,30.45
2019-04-04T09:10:54.924Z,28.38
2019-04-04T09:13:21.575Z,23.47
2019-04-04T09:15:48.236Z,22.32
2019-04-04T09:18:14.926Z,18.40
2019-04-04T09:20:41.600Z,22.98
2019-04-04T09:23:08.290Z,22.67
2019-04-04T09:25:35.002Z,34.00
2019-04-04T09:28:01.691Z,33.18
2019-04-04T09:30:28.413Z,34.70
2019-04-04T09:32:55.027Z,28.60
2019-04-04T09:35:21.708Z,26.68
2019-04-04T09:37:48.382Z,26.68
2019-04-04T09:40:15.300Z,22.87
2019-04-04T09:42:42.016Z,23.55
2019-04-04T09:45:09.261Z,19.52
2019-04-04T09:47:35.916Z,18.10
2019-04-04T09:50:05.441Z,19.23
2019-04-04T09:52:32.151Z,13.98
2019-04-04T09:54:58.872Z,11.20
2019-04-04T09:57:25.568Z,11.00
2019-04-04T09:59:52.404Z,8.93
2019-04-04T10:02:18.994Z,9.28
2019-04-04T10:04:45.684Z,10.68
2019-04-04T10:07:12.414Z,7.37
2019-04-04T10:09:39.073Z,8.33
2019-04-04T10:12:05.806Z,6.58
2019-04-04T10:14:32.479Z,7.20
2019-04-04T10:16:59.097Z,7.22
2019-04-04T10:19:25.724Z,11.18
2019-04-04T10:21:52.458Z,9.00
2019-04-04T10:24:19.054Z,8.85
2019-04-04T10:26:45.727Z,8.48
2019-04-04T10:29:12.388Z,8.28
2019-04-04T10:31:39.011Z,10.43
2019-04-04T10:34:05.643Z,9.48
2019-04-04T10:36:32.358Z,7.95
2019-04-04T10:38:59.958Z,7.47
2019-04-04T10:41:26.599Z,7.58
2019-04-04T10:43:53.311Z,11.20
2019-04-04T10:46:19.959Z,8.30
2019-04-04T10:48:46.581Z,8.58
2019-04-04T10:51:13.267Z,9.33
2019-04-04T10:53:39.882Z,10.55
2019-04-04T10:56:06.587Z,7.72
2019-04-04T10:58:33.247Z,14.50
2019-04-04T11:00:59.960Z,8.05
2019-04-04T11:03:26.655Z,11.00
2019-04-04T11:05:53.377Z,9.88
2019-04-04T11:08:21.152Z,8.98
2019-04-04T11:10:47.771Z,8.55
2019-04-04T11:13:14.431Z,8.03
2019-04-04T11:15:41.105Z,8.83
2019-04-04T11:18:07.726Z,6.72
2019-04-04T11:20:34.454Z,7.60
2019-04-04T11:23:01.146Z,7.83
2019-04-04T11:25:27.803Z,8.15
2019-04-04T11:27:54.489Z,6.50
2019-04-04T11:30:21.230Z,6.12
2019-04-04T11:32:49.077Z,6.60
2019-04-04T11:35:15.971Z,5.42
2019-04-04T11:37:42.591Z,7.70
2019-04-04T11:40:10.752Z,6.83
2019-04-04T11:42:37.432Z,7.00
2019-04-04T11:45:04.456Z,7.08
2019-04-04T11:47:31.163Z,5.80
2019-04-04T11:49:57.857Z,8.18
2019-04-04T11:52:24.572Z,10.05
2019-04-04T11:54:58.566Z,8.30
2019-04-04T11:57:25.292Z,9.10
2019-04-04T11:59:51.892Z,7.85
2019-04-04T12:02:18.630Z,7.67
2019-04-04T12:04:46.338Z,6.33
2019-04-04T12:07:12.923Z,7.30
2019-04-04T12:09:39.651Z,6.25
2019-04-04T12:12:06.343Z,6.58
2019-04-04T12:14:33.059Z,9.80
2019-04-04T12:16:59.671Z,8.58
2019-04-04T12:19:26.414Z,7.45
2019-04-04T12:21:53.033Z,7.42
2019-04-04T12:24:19.683Z,7.97
2019-04-04T12:26:46.356Z,11.80
2019-04-04T12:29:14.030Z,5.83
2019-04-04T12:31:40.654Z,7.33
2019-04-04T12:34:07.355Z,6.25
2019-04-04T12:36:33.975Z,6.25
2019-04-04T12:39:00.653Z,5.92
2019-04-04T12:41:28.374Z,8.75
2019-04-04T12:43:56.194Z,7.60
2019-04-04T12:46:22.829Z,6.35
2019-04-04T12:48:49.537Z,8.53
2019-04-04T12:51:16.284Z,8.30
2019-04-04T12:53:42.992Z,7.92
2019-04-04T12:56:09.693Z,5.95
2019-04-04T12:58:36.294Z,5.87
2019-04-04T13:01:03.043Z,7.40
2019-04-04T13:03:30.530Z,7.40
2019-04-04T13:05:57.224Z,8.60
2019-04-04T13:08:23.947Z,10.32
2019-04-04T13:10:50.725Z,9.73
2019-04-04T13:13:17.328Z,7.47
2019-04-04T13:15:44.008Z,5.60
2019-04-04T13:18:10.694Z,7.45
2019-04-04T13:20:37.324Z,8.95
2019-04-04T13:23:04.113Z,8.25
2019-04-04T13:25:30.784Z,7.00
2019-04-04T13:27:57.403Z,8.15
2019-04-04T13:30:24.056Z,6.25
2019-04-04T13:32:50.778Z,5.85
2019-04-04T13:35:17.363Z,7.62
2019-04-04T13:37:44.046Z,6.42
2019-04-04T13:40:10.936Z,7.53
2019-04-04T13:42:37.557Z,5.53
2019-04-04T13:45:05.389Z,6.75
2019-04-04T13:47:32.132Z,9.08
2019-04-04T13:49:58.746Z,6.03
2019-04-04T13:52:26.442Z,9.15
2019-04-04T13:54:55.690Z,8.53
2019-04-04T13:57:22.359Z,8.38
2019-04-04T13:59:48.975Z,8.65
2019-04-04T14:02:15.681Z,9.93
2019-04-04T14:04:42.271Z,5.25
2019-04-04T14:07:08.967Z,5.15
2019-04-04T14:09:35.654Z,4.10
2019-04-04T14:12:02.398Z,7.00
2019-04-04T14:14:29.091Z,7.75
2019-04-04T14:16:55.783Z,9.15
2019-04-04T14:19:22.405Z,7.15
2019-04-04T14:21:49.078Z,7.83
2019-04-04T14:24:15.770Z,8.43
2019-04-04T14:26:45.662Z,14.30
2019-04-04T14:29:11.158Z,7.80
2019-04-04T14:31:37.828Z,6.12
2019-04-04T14:34:04.438Z,8.38
2019-04-04T14:36:31.134Z,9.98
2019-04-04T14:38:57.831Z,9.28
2019-04-04T14:41:24.552Z,9.40
2019-04-04T14:43:51.257Z,5.83
2019-04-04T14:46:18.168Z,6.92
2019-04-04T14:48:44.758Z,8.13
2019-04-04T14:51:11.438Z,10.15
2019-04-04T14:53:38.131Z,4.78
2019-04-04T14:56:04.820Z,8.20
2019-04-04T14:58:31.538Z,7.85
2019-04-04T15:00:58.291Z,7.85
2019-04-04T15:03:24.941Z,9.78
2019-04-04T15:05:51.589Z,8.83
2019-04-04T15:08:18.320Z,8.55
2019-04-04T15:10:44.942Z,6.05
2019-04-04T15:13:11.697Z,6.92
2019-04-04T15:15:42.055Z,9.05
2019-04-04T15:18:08.716Z,6.28
2019-04-04T15:20:35.407Z,6.25
2019-04-04T15:23:02.092Z,6.62
2019-04-04T15:25:28.776Z,5.62
2019-04-04T15:27:55.410Z,5.95
2019-04-04T15:30:22.155Z,7.80
2019-04-04T15:32:48.748Z,10.00
2019-04-04T15:35:15.415Z,6.50
2019-04-04T15:37:42.105Z,8.13
2019-04-04T15:40:09.031Z,9.78
2019-04-04T15:42:35.682Z,7.15
2019-04-04T15:45:04.099Z,7.58
2019-04-04T15:47:30.809Z,9.48
2019-04-04T15:49:57.458Z,6.42
2019-04-04T15:52:24.165Z,10.58
2019-04-04T15:54:50.786Z,11.33
2019-04-04T15:57:17.410Z,7.25
2019-04-04T15:59:45.130Z,8.08
2019-04-04T16:02:11.864Z,5.97
2019-04-04T16:04:38.578Z,6.00
2019-04-04T16:07:05.919Z,13.78
2019-04-04T16:09:32.529Z,4.87
2019-04-04T16:11:59.192Z,8.08
2019-04-04T16:14:25.961Z,9.15
2019-04-04T16:16:52.670Z,9.75
2019-04-04T16:19:19.364Z,9.20
2019-04-04T16:21:46.071Z,8.85
2019-04-04T16:24:12.663Z,7.80
2019-04-04T16:26:39.319Z,6.95
2019-04-04T16:29:05.991Z,8.08
2019-04-04T16:31:34.439Z,8.95
2019-04-04T16:34:01.276Z,8.00
2019-04-04T16:36:27.949Z,9.13
2019-04-04T16:38:54.606Z,9.95
2019-04-04T16:41:21.231Z,13.53
2019-04-04T16:43:49.475Z,6.47
2019-04-04T16:46:16.477Z,9.00
2019-04-04T16:48:43.144Z,8.83
2019-04-04T16:51:09.835Z,8.83
2019-04-04T16:53:36.480Z,11.30
2019-04-04T16:56:03.310Z,8.78
2019-04-04T16:58:30.036Z,12.18
2019-04-04T17:00:56.624Z,8.95
2019-04-04T17:03:23.278Z,10.50
2019-04-04T17:05:49.994Z,8.25
2019-04-04T17:08:16.638Z,8.10
2019-04-04T17:10:43.364Z,10.63
2019-04-04T17:13:10.055Z,11.45
2019-04-04T17:15:36.743Z,11.28
2019-04-04T17:18:03.468Z,10.75
2019-04-04T17:20:30.139Z,12.25
2019-04-04T17:22:56.755Z,9.58
2019-04-04T17:25:23.434Z,19.65
2019-04-04T17:27:50.106Z,19.75
2019-04-04T17:30:17.458Z,7.72
2019-04-04T17:32:44.412Z,14.05
2019-04-04T17:35:11.233Z,8.95
2019-04-04T17:37:37.902Z,11.00
2019-04-04T17:40:06.144Z,12.98
2019-04-04T17:42:33.710Z,15.28
2019-04-04T17:45:01.513Z,13.45
2019-04-04T17:47:29.521Z,15.32
2019-04-04T17:49:56.225Z,10.00
2019-04-04T17:52:22.877Z,12.73
2019-04-04T17:54:49.974Z,9.40
2019-04-04T17:57:16.880Z,11.85
2019-04-04T17:59:43.526Z,13.13
2019-04-04T18:02:10.303Z,12.53
2019-04-04T18:04:47.846Z,10.25
2019-04-04T18:07:05.523Z,9.83
2019-04-04T18:09:32.363Z,9.83
2019-04-04T18:11:59.149Z,9.58
2019-04-04T18:14:25.860Z,7.95
2019-04-04T18:16:52.621Z,13.45
2019-04-04T18:19:19.334Z,21.77
2019-04-04T18:21:45.948Z,13.68
2019-04-04T18:24:12.630Z,16.45
2019-04-04T18:26:39.306Z,15.80
2019-04-04T18:29:06.162Z,19.15
2019-04-04T18:31:32.847Z,13.88
2019-04-04T18:33:59.750Z,17.25
2019-04-04T18:36:26.548Z,12.82
2019-04-04T18:38:53.275Z,15.40
2019-04-04T18:41:20.016Z,19.27
2019-04-04T18:43:46.619Z,24.77
2019-04-04T18:46:13.234Z,20.10
2019-04-04T18:48:39.925Z,22.82
2019-04-04T18:51:06.871Z,24.70
2019-04-04T18:53:33.475Z,25.55
2019-04-04T18:56:00.156Z,21.70
2019-04-04T18:58:26.779Z,26.15
2019-04-04T19:00:53.390Z,22.00
2019-04-04T19:03:20.083Z,24.32
2019-04-04T19:05:46.678Z,20.88
2019-04-04T19:08:13.279Z,33.60
2019-04-04T19:10:39.980Z,27.55
2019-04-04T19:13:06.656Z,30.95
2019-04-04T19:15:33.367Z,26.10
2019-04-04T19:18:01.145Z,28.47
2019-04-04T19:20:27.865Z,27.77
2019-04-04T19:22:54.570Z,26.55
2019-04-04T19:25:21.597Z,27.77
2019-04-04T19:27:48.203Z,22.35
2019-04-04T19:30:16.663Z,25.00
2019-04-04T19:32:43.362Z,24.87
2019-04-04T19:35:10.691Z,25.10
2019-04-04T19:37:37.355Z,25.62
2019-04-04T19:40:05.184Z,26.37
2019-04-04T19:42:31.811Z,28.02
2019-04-04T19:44:58.529Z,27.13
2019-04-04T19:47:25.214Z,31.27
2019-04-04T19:49:51.930Z,30.20
2019-04-04T19:52:18.618Z,30.62
2019-04-04T19:54:45.330Z,38.60
2019-04-04T19:57:11.928Z,25.88
2019-04-04T19:59:38.577Z,24.12
2019-04-04T20:02:05.470Z,27.02
2019-04-04T20:04:32.160Z,32.08
2019-04-04T20:06:58.858Z,31.60
2019-04-04T20:09:26.697Z,29.70
2019-04-04T20:11:53.306Z,23.30
2019-04-04T20:14:19.945Z,22.07
2019-04-04T20:16:46.675Z,20.37
2019-04-04T20:19:14.308Z,23.32
2019-04-04T20:22:01.404Z,19.32
2019-04-04T20:24:47.016Z,16.82
2019-04-04T20:27:27.292Z,15.65
2019-04-04T20:30:14.269Z,13.10
2019-04-04T20:32:57.794Z,15.18
2019-04-04T20:35:46.757Z,13.78
2019-04-04T20:38:28.326Z,15.05
2019-04-04T20:41:08.467Z,12.40
2019-04-04T20:43:47.747Z,16.77
2019-04-04T20:46:30.260Z,13.22
2019-04-04T20:49:15.812Z,13.70
2019-04-04T20:51:57.241Z,14.93
2019-04-04T20:54:36.117Z,14.98
2019-04-04T20:57:18.673Z,15.75
2019-04-04T21:00:00.597Z,16.25
2019-04-04T21:02:42.979Z,16.80
2019-04-04T21:05:23.811Z,13.32
2019-04-04T21:08:09.195Z,11.43
2019-04-04T21:10:52.429Z,12.88
2019-04-04T21:13:28.484Z,19.98
2019-04-04T21:16:15.550Z,19.75
2019-04-04T21:19:00.470Z,20.45
2019-04-04T21:21:47.236Z,20.48
2019-04-04T21:24:29.123Z,15.23
2019-04-04T21:27:12.750Z,17.42
2019-04-04T21:29:52.638Z,15.43
2019-04-04T21:32:35.423Z,17.05
2019-04-04T21:35:17.492Z,16.42
2019-04-04T21:37:59.349Z,15.43
2019-04-04T21:40:39.283Z,14.43
2019-04-04T21:43:27.820Z,14.68
2019-04-04T21:46:12.236Z,12.50
2019-04-04T21:48:52.816Z,13.03
2019-04-04T21:51:31.167Z,13.10
2019-04-04T21:54:14.783Z,13.75
2019-04-04T21:56:55.117Z,15.32
2019-04-04T21:59:31.086Z,11.90
2019-04-04T22:02:12.031Z,12.33
2019-04-04T22:04:55.548Z,13.30
2019-04-04T22:07:37.225Z,13.38
2019-04-04T22:10:21.962Z,14.98
2019-04-04T22:13:03.910Z,13.43
2019-04-04T22:15:46.370Z,9.88
2019-04-04T22:18:24.238Z,12.35
2019-04-04T22:21:02.190Z,11.65
2019-04-04T22:23:56.094Z,12.30
2019-04-04T22:26:45.291Z,13.58
2019-04-04T22:29:23.886Z,14.10
2019-04-04T22:32:04.665Z,10.85
2019-04-04T22:34:54.942Z,11.78
2019-04-04T22:37:33.731Z,11.12
2019-04-04T22:40:13.231Z,10.43
2019-04-04T22:42:52.965Z,8.88
2019-04-04T22:45:41.190Z,11.80
2019-04-04T22:48:22.935Z,11.97
2019-04-04T22:51:08.086Z,11.00
2019-04-04T22:53:47.063Z,12.25
2019-04-04T22:56:31.089Z,10.23
2019-04-04T22:59:18.543Z,10.38
2019-04-04T23:01:59.249Z,14.40
2019-04-04T23:04:34.444Z,11.80
2019-04-04T23:07:20.022Z,18.40
2019-04-04T23:09:55.211Z,11.33
2019-04-04T23:12:40.781Z,10.55
2019-04-04T23:15:24.919Z,15.15
2019-04-04T23:18:11.570Z,11.12
2019-04-04T23:20:55.355Z,13.68
2019-04-04T23:23:38.310Z,11.48
2019-04-04T23:26:27.541Z,13.13
2019-04-04T23:29:09.810Z,14.78
2019-04-04T23:31:51.606Z,11.08
2019-04-04T23:34:32.457Z,10.93
2019-04-04T23:37:12.881Z,10.55
2019-04-04T23:39:57.617Z,11.03
2019-04-04T23:42:24.384Z,14.73
2019-04-04T23:45:00.745Z,11.38
2019-04-04T23:47:19.644Z,11.30
2019-04-04T23:49:46.228Z,12.35
2019-04-04T23:52:12.900Z,14.38
2019-04-04T23:54:39.590Z,14.25
2019-04-04T23:57:06.231Z,11.22
2019-04-04T23:59:32.829Z,11.57
